Koshkonong, Missouri
Current Conditions -  °F | °C
As of 3:53 PM on Saturday 25 Oct 2014 (Local Time) from KUNO Reporting Station
Clear Clear  
Wind Chill: 82°   Ceiling: Unl
Heat Index: 83°   Visibility: 10mi
Dew Point: 62°   Wind: 6mph
Humidity: 51%   Direction: 230°SW
Pressure: 30.04"   Gusts: NA
Location:  36.6°N, 91.65°W
Report Text: KUNO 252053Z AUTO 23005KT 10SM CLR 28/17 A3004 RMK AO2 SLP161 T02780167 56012
Loading
Personal Weather Stations






























Interactive Weather Map
Tropical Storm Tracking
New forecast layout! Learn more

10-Day Weather Forecast

Advertisements
Track Severe Weather on mobile